createdAt,value
2017-08-22T00:01:01.931Z,10.00
2017-08-22T00:03:35.241Z,10.00
2017-08-22T00:06:02.786Z,10.00
2017-08-22T00:08:30.299Z,10.10
2017-08-22T00:10:57.849Z,10.00
2017-08-22T00:13:25.361Z,9.80
2017-08-22T00:15:52.894Z,9.70
2017-08-22T00:18:20.415Z,9.60
2017-08-22T00:20:47.951Z,9.50
2017-08-22T00:23:15.471Z,9.40
2017-08-22T00:25:42.991Z,9.40
2017-08-22T00:28:10.535Z,9.50
2017-08-22T00:30:38.055Z,9.50
2017-08-22T00:33:05.599Z,9.50
2017-08-22T00:35:33.114Z,9.60
2017-08-22T00:38:00.642Z,9.60
2017-08-22T00:40:28.191Z,9.60
2017-08-22T00:42:55.722Z,9.60
2017-08-22T00:45:23.244Z,9.60
2017-08-22T00:47:50.782Z,9.60
2017-08-22T00:50:18.302Z,9.70
2017-08-22T00:52:45.842Z,9.70
2017-08-22T00:55:14.142Z,9.60
2017-08-22T00:57:41.682Z,9.60
2017-08-22T01:00:09.197Z,9.60
2017-08-22T01:02:36.714Z,9.60
2017-08-22T01:05:04.256Z,9.50
2017-08-22T01:07:31.771Z,9.50
2017-08-22T01:09:59.301Z,9.60
2017-08-22T01:12:26.819Z,9.60
2017-08-22T01:14:54.379Z,9.60
2017-08-22T01:17:21.905Z,9.60
2017-08-22T01:19:49.443Z,9.70
2017-08-22T01:22:16.962Z,9.60
2017-08-22T01:24:44.506Z,9.60
2017-08-22T01:27:12.018Z,9.50
2017-08-22T01:29:39.535Z,9.50
2017-08-22T01:32:07.076Z,9.50
2017-08-22T01:34:34.582Z,9.50
2017-08-22T01:37:02.115Z,9.50
2017-08-22T01:39:29.638Z,9.40
2017-08-22T01:41:57.174Z,9.40
2017-08-22T01:44:24.695Z,9.40
2017-08-22T01:46:52.232Z,9.40
2017-08-22T01:49:19.755Z,9.50
2017-08-22T01:51:47.295Z,9.50
2017-08-22T01:54:14.810Z,9.50
2017-08-22T01:56:42.360Z,9.60
2017-08-22T01:59:09.877Z,9.60
2017-08-22T02:01:37.398Z,9.60
2017-08-22T02:04:04.938Z,9.50
2017-08-22T02:06:32.455Z,9.50
2017-08-22T02:08:59.995Z,9.50
2017-08-22T02:11:27.515Z,9.50
2017-08-22T02:13:55.053Z,9.50
2017-08-22T02:16:22.569Z,9.60
2017-08-22T02:18:50.105Z,9.50
2017-08-22T02:21:17.619Z,9.40
2017-08-22T02:23:45.155Z,9.50
2017-08-22T02:26:12.675Z,9.50
2017-08-22T02:28:40.218Z,9.50
2017-08-22T02:31:07.739Z,9.50
2017-08-22T02:33:35.284Z,9.60
2017-08-22T02:36:02.798Z,9.60
2017-08-22T02:38:30.311Z,9.60
2017-08-22T02:40:57.846Z,9.60
2017-08-22T02:43:25.367Z,9.50
2017-08-22T02:45:52.904Z,9.50
2017-08-22T02:48:20.430Z,9.60
2017-08-22T02:50:47.970Z,9.60
2017-08-22T02:53:15.487Z,9.60
2017-08-22T02:55:43.033Z,9.60
2017-08-22T02:58:10.554Z,9.70
2017-08-22T03:00:38.094Z,9.70
2017-08-22T03:03:05.614Z,9.70
2017-08-22T03:05:33.150Z,9.80
2017-08-22T03:08:00.669Z,9.70
2017-08-22T03:10:28.211Z,9.80
2017-08-22T03:12:55.726Z,9.80
2017-08-22T03:15:23.246Z,9.80
2017-08-22T03:17:50.783Z,9.70
2017-08-22T03:20:18.303Z,9.60
2017-08-22T03:22:45.843Z,9.60
2017-08-22T03:25:13.361Z,9.70
2017-08-22T03:27:40.898Z,9.80
2017-08-22T03:30:08.423Z,9.80
2017-08-22T03:32:35.962Z,9.90
2017-08-22T03:35:03.483Z,9.90
2017-08-22T03:37:31.014Z,9.90
2017-08-22T03:39:58.539Z,9.90
2017-08-22T03:42:26.079Z,9.80
2017-08-22T03:44:53.604Z,9.80
2017-08-22T03:47:21.137Z,9.80
2017-08-22T03:49:55.106Z,9.80
2017-08-22T03:52:22.656Z,9.90
2017-08-22T03:54:50.179Z,9.80
2017-08-22T03:57:17.695Z,9.80
2017-08-22T03:59:45.232Z,9.70
2017-08-22T04:02:12.755Z,9.70
2017-08-22T04:04:40.317Z,9.60
2017-08-22T04:07:07.835Z,9.60
2017-08-22T04:09:35.387Z,9.60
2017-08-22T04:12:02.903Z,9.60
2017-08-22T04:14:30.435Z,9.60
2017-08-22T04:16:57.948Z,9.60
2017-08-22T04:19:25.483Z,9.70
2017-08-22T04:21:53.011Z,9.70
2017-08-22T04:24:20.550Z,9.70
2017-08-22T04:26:48.075Z,9.70
2017-08-22T04:29:15.610Z,9.80
2017-08-22T04:31:43.131Z,9.80
2017-08-22T04:34:10.666Z,9.80
2017-08-22T04:36:38.182Z,9.90
2017-08-22T04:39:05.699Z,9.80
2017-08-22T04:41:33.234Z,9.80
2017-08-22T04:44:00.758Z,9.80
2017-08-22T04:46:28.298Z,9.70
2017-08-22T04:48:55.818Z,9.70
2017-08-22T04:51:23.355Z,9.70
2017-08-22T04:53:50.871Z,9.80
2017-08-22T04:56:18.403Z,9.90
2017-08-22T04:58:45.918Z,10.00
2017-08-22T05:01:13.459Z,10.00
2017-08-22T05:03:40.990Z,10.10
2017-08-22T05:06:08.545Z,10.10
2017-08-22T05:08:36.070Z,10.30
2017-08-22T05:11:03.607Z,10.30
2017-08-22T05:13:31.130Z,10.30
2017-08-22T05:15:58.679Z,10.40
2017-08-22T05:18:26.198Z,10.40
2017-08-22T05:20:53.721Z,10.40
2017-08-22T05:23:21.277Z,10.40
2017-08-22T05:25:49.368Z,10.40
2017-08-22T05:28:16.906Z,10.50
2017-08-22T05:30:44.535Z,10.60
2017-08-22T05:33:12.086Z,10.80
2017-08-22T05:35:39.619Z,10.90
2017-08-22T05:38:07.164Z,11.10
2017-08-22T05:40:34.682Z,11.30
2017-08-22T05:43:02.224Z,11.50
2017-08-22T05:45:29.966Z,11.70
2017-08-22T05:47:57.560Z,12.10
2017-08-22T05:50:25.080Z,12.40
2017-08-22T05:52:52.655Z,13.00
2017-08-22T05:55:20.191Z,13.30
2017-08-22T05:57:51.446Z,13.40
2017-08-22T06:00:19.811Z,13.40
2017-08-22T06:02:47.334Z,13.20
2017-08-22T06:05:14.874Z,12.90
2017-08-22T06:07:42.391Z,12.80
2017-08-22T06:10:09.951Z,12.80
2017-08-22T06:12:37.471Z,12.90
2017-08-22T06:15:05.011Z,13.10
2017-08-22T06:17:32.541Z,13.50
2017-08-22T06:20:00.078Z,14.20
2017-08-22T06:22:27.611Z,14.70
2017-08-22T06:24:55.161Z,15.10
2017-08-22T06:27:22.686Z,15.40
2017-08-22T06:29:50.236Z,16.10
2017-08-22T06:32:17.754Z,16.80
2017-08-22T06:34:45.280Z,16.90
2017-08-22T06:37:12.824Z,16.70
2017-08-22T06:39:40.342Z,16.50
2017-08-22T06:42:07.880Z,16.40
2017-08-22T06:44:35.407Z,16.30
2017-08-22T06:47:02.956Z,16.40
2017-08-22T06:49:30.523Z,16.60
2017-08-22T06:51:58.061Z,16.80
2017-08-22T06:54:25.592Z,17.00
2017-08-22T06:56:53.139Z,17.30
2017-08-22T06:59:20.666Z,17.50
2017-08-22T07:01:48.220Z,17.80
2017-08-22T07:04:15.735Z,18.40
2017-08-22T07:06:43.259Z,18.70
2017-08-22T07:09:10.801Z,18.50
2017-08-22T07:11:38.340Z,18.20
2017-08-22T07:14:05.887Z,18.00
2017-08-22T07:16:33.416Z,17.90
2017-08-22T07:19:00.955Z,17.80
2017-08-22T07:21:28.479Z,17.80
2017-08-22T07:23:56.026Z,18.00
2017-08-22T07:26:23.548Z,17.90
2017-08-22T07:28:51.090Z,17.70
2017-08-22T07:31:18.618Z,17.60
2017-08-22T07:33:46.159Z,17.40
2017-08-22T07:36:13.699Z,17.20
2017-08-22T07:38:41.252Z,17.00
2017-08-22T07:41:08.771Z,16.90
2017-08-22T07:43:36.295Z,16.80
2017-08-22T07:46:03.860Z,16.60
2017-08-22T07:48:31.392Z,16.70
2017-08-22T07:50:58.933Z,16.80
2017-08-22T07:53:26.459Z,16.80
2017-08-22T07:55:54.002Z,17.00
2017-08-22T07:58:22.035Z,17.20
2017-08-22T08:00:49.578Z,17.50
2017-08-22T08:03:17.102Z,17.80
2017-08-22T08:05:44.642Z,18.00
2017-08-22T08:08:12.159Z,17.80
2017-08-22T08:10:39.711Z,17.80
2017-08-22T08:13:07.237Z,17.90
2017-08-22T08:15:34.771Z,18.10
2017-08-22T08:18:02.311Z,18.30
2017-08-22T08:20:29.830Z,18.40
2017-08-22T08:22:57.370Z,18.50
2017-08-22T08:25:24.895Z,18.60
2017-08-22T08:27:52.440Z,18.70
2017-08-22T08:30:19.967Z,18.70
2017-08-22T08:32:47.510Z,18.70
2017-08-22T08:35:15.031Z,18.70
2017-08-22T08:37:42.642Z,18.70
2017-08-22T08:40:10.163Z,18.80
2017-08-22T08:42:37.730Z,18.90
2017-08-22T08:45:05.255Z,19.10
2017-08-22T08:47:32.798Z,19.40
2017-08-22T08:50:00.319Z,19.60
2017-08-22T08:52:27.859Z,19.70
2017-08-22T08:54:55.382Z,19.90
2017-08-22T08:57:22.932Z,20.30
2017-08-22T08:59:50.457Z,20.70
2017-08-22T09:02:17.982Z,21.00
2017-08-22T09:04:45.547Z,21.20
2017-08-22T09:07:13.075Z,21.40
2017-08-22T09:09:40.623Z,21.50
2017-08-22T09:12:08.142Z,21.50
2017-08-22T09:14:35.691Z,21.60
2017-08-22T09:17:03.223Z,21.80
2017-08-22T09:19:30.778Z,22.10
2017-08-22T09:21:58.300Z,22.40
2017-08-22T09:24:25.849Z,22.70
2017-08-22T09:26:53.378Z,23.20
2017-08-22T09:29:20.921Z,23.80
2017-08-22T09:31:48.446Z,24.40
2017-08-22T09:34:15.998Z,24.80
2017-08-22T09:36:43.525Z,25.20
2017-08-22T09:39:11.083Z,25.10
2017-08-22T09:41:38.603Z,25.10
2017-08-22T09:44:06.136Z,25.30
2017-08-22T09:46:33.694Z,25.40
2017-08-22T09:49:01.227Z,25.40
2017-08-22T09:51:28.772Z,25.60
2017-08-22T09:53:56.299Z,26.30
2017-08-22T09:56:23.843Z,26.90
2017-08-22T09:58:51.359Z,26.90
2017-08-22T10:01:19.008Z,27.00
2017-08-22T10:03:46.565Z,27.30
2017-08-22T10:06:14.119Z,27.40
2017-08-22T10:08:41.647Z,27.60
2017-08-22T10:11:09.190Z,27.90
2017-08-22T10:13:36.734Z,27.80
2017-08-22T10:16:04.266Z,27.60
2017-08-22T10:19:08.002Z,27.50
2017-08-22T10:21:35.526Z,27.90
2017-08-22T10:24:03.067Z,27.90
2017-08-22T10:26:31.356Z,27.70
2017-08-22T10:28:58.903Z,27.70
2017-08-22T10:31:26.426Z,27.20
2017-08-22T10:33:53.970Z,27.00
2017-08-22T10:36:21.490Z,27.10
2017-08-22T10:38:49.038Z,27.20
2017-08-22T10:41:16.563Z,27.50
2017-08-22T10:43:44.108Z,27.60
2017-08-22T10:46:11.631Z,27.60
2017-08-22T10:48:39.170Z,27.90
2017-08-22T10:51:06.708Z,28.20
2017-08-22T10:53:34.230Z,28.30
2017-08-22T10:56:01.770Z,28.00
2017-08-22T10:58:29.290Z,28.10
2017-08-22T11:00:56.838Z,28.40
2017-08-22T11:03:24.370Z,28.40
2017-08-22T11:05:51.911Z,27.90
2017-08-22T11:08:19.438Z,28.20
2017-08-22T11:10:46.978Z,28.40
2017-08-22T11:13:14.500Z,28.10
2017-08-22T11:15:42.059Z,27.80
2017-08-22T11:18:09.575Z,27.80
2017-08-22T11:20:37.118Z,27.70
2017-08-22T11:23:04.643Z,28.10
2017-08-22T11:25:32.186Z,28.10
2017-08-22T11:27:59.712Z,28.20
2017-08-22T11:30:27.239Z,28.00
2017-08-22T11:32:54.783Z,27.80
2017-08-22T11:35:22.307Z,27.70
2017-08-22T11:37:49.843Z,27.20
2017-08-22T11:40:17.365Z,27.00
2017-08-22T11:42:44.904Z,26.80
2017-08-22T11:45:12.427Z,26.90
2017-08-22T11:47:39.970Z,27.20
2017-08-22T11:50:07.487Z,27.20
2017-08-22T11:52:35.038Z,27.00
2017-08-22T11:55:02.559Z,26.80
2017-08-22T11:57:30.107Z,26.50
2017-08-22T11:59:57.630Z,26.40
2017-08-22T12:02:25.166Z,26.50
2017-08-22T12:04:52.691Z,26.80
2017-08-22T12:07:20.252Z,26.70
2017-08-22T12:09:47.772Z,27.00
2017-08-22T12:12:15.307Z,27.10
2017-08-22T12:14:42.846Z,27.20
2017-08-22T12:17:10.369Z,27.60
2017-08-22T12:19:37.916Z,27.70
2017-08-22T12:22:05.452Z,27.80
2017-08-22T12:24:34.270Z,27.60
2017-08-22T12:27:01.794Z,27.80
2017-08-22T12:29:29.339Z,28.40
2017-08-22T12:31:56.923Z,28.10
2017-08-22T12:34:24.584Z,27.90
2017-08-22T12:36:52.158Z,27.60
2017-08-22T12:39:19.734Z,27.80
2017-08-22T12:41:47.297Z,28.20
2017-08-22T12:44:14.865Z,28.40
2017-08-22T12:46:42.424Z,28.50
2017-08-22T12:49:09.979Z,28.20
2017-08-22T12:51:37.578Z,28.20
2017-08-22T12:54:05.147Z,28.00
2017-08-22T12:56:32.756Z,27.70
2017-08-22T12:59:00.328Z,27.50
2017-08-22T13:01:27.868Z,27.70
2017-08-22T13:03:55.395Z,27.80
2017-08-22T13:06:22.940Z,27.70
2017-08-22T13:08:50.467Z,27.70
2017-08-22T13:11:17.988Z,27.60
2017-08-22T13:13:45.532Z,27.40
2017-08-22T13:16:13.067Z,27.00
2017-08-22T13:18:40.614Z,26.70
2017-08-22T13:21:08.136Z,26.90
2017-08-22T13:23:35.675Z,27.20
2017-08-22T13:26:03.205Z,27.10
2017-08-22T13:28:30.747Z,27.20
2017-08-22T13:30:58.262Z,27.50
2017-08-22T13:33:25.803Z,27.60
2017-08-22T13:35:53.328Z,27.50
2017-08-22T13:38:20.867Z,27.70
2017-08-22T13:40:48.487Z,27.50
2017-08-22T13:43:16.010Z,27.20
2017-08-22T13:45:43.551Z,27.40
2017-08-22T13:48:11.070Z,27.50
2017-08-22T13:50:38.606Z,27.80
2017-08-22T13:53:06.128Z,28.00
2017-08-22T13:55:33.676Z,27.70
2017-08-22T13:58:01.214Z,26.90
2017-08-22T14:00:28.750Z,26.80
2017-08-22T14:02:56.322Z,26.60
2017-08-22T14:05:23.871Z,26.90
2017-08-22T14:07:51.395Z,27.00
2017-08-22T14:10:18.935Z,27.30
2017-08-22T14:12:46.458Z,27.50
2017-08-22T14:15:14.015Z,27.30
2017-08-22T14:17:41.533Z,27.10
2017-08-22T14:20:09.130Z,27.20
2017-08-22T14:22:36.739Z,27.40
2017-08-22T14:25:04.267Z,27.30
2017-08-22T14:27:31.819Z,27.00
2017-08-22T14:29:59.346Z,27.10
2017-08-22T14:32:26.971Z,27.20
2017-08-22T14:34:54.486Z,27.30
2017-08-22T14:37:22.026Z,27.30
2017-08-22T14:39:49.575Z,27.00
2017-08-22T14:42:17.111Z,26.70
2017-08-22T14:44:44.633Z,26.50
2017-08-22T14:47:12.155Z,26.20
2017-08-22T14:49:39.910Z,25.80
2017-08-22T14:52:07.438Z,25.40
2017-08-22T14:54:34.983Z,25.10
2017-08-22T14:57:02.520Z,24.90
2017-08-22T14:59:30.062Z,24.90
2017-08-22T15:01:57.578Z,24.80
2017-08-22T15:04:25.114Z,24.80
2017-08-22T15:06:52.636Z,24.90
2017-08-22T15:09:20.179Z,25.10
2017-08-22T15:11:47.700Z,25.20
2017-08-22T15:14:15.238Z,25.50
2017-08-22T15:16:42.757Z,25.80
2017-08-22T15:19:10.290Z,25.90
2017-08-22T15:21:37.809Z,26.00
2017-08-22T15:24:05.330Z,25.90
2017-08-22T15:26:32.868Z,25.60
2017-08-22T15:29:00.382Z,25.50
2017-08-22T15:31:27.921Z,25.50
2017-08-22T15:33:55.446Z,25.70
2017-08-22T15:36:22.987Z,25.80
2017-08-22T15:38:50.515Z,25.70
2017-08-22T15:41:18.058Z,25.30
2017-08-22T15:43:45.578Z,25.30
2017-08-22T15:46:13.116Z,24.90
2017-08-22T15:48:40.644Z,24.80
2017-08-22T15:51:08.191Z,24.80
2017-08-22T15:53:35.715Z,24.80
2017-08-22T15:56:03.250Z,24.70
2017-08-22T15:58:30.774Z,24.40
2017-08-22T16:00:58.315Z,24.30
2017-08-22T16:03:25.831Z,24.30
2017-08-22T16:05:53.351Z,24.20
2017-08-22T16:08:20.896Z,24.00
2017-08-22T16:10:48.418Z,23.90
2017-08-22T16:13:15.962Z,23.80
2017-08-22T16:15:43.482Z,23.80
2017-08-22T16:18:11.026Z,23.90
2017-08-22T16:20:38.543Z,23.90
2017-08-22T16:23:06.082Z,23.80
2017-08-22T16:25:33.598Z,23.80
2017-08-22T16:28:01.150Z,23.80
2017-08-22T16:30:28.667Z,23.70
2017-08-22T16:32:56.210Z,23.70
2017-08-22T16:35:23.758Z,23.60
2017-08-22T16:37:51.288Z,23.50
2017-08-22T16:40:18.826Z,23.30
2017-08-22T16:42:46.346Z,23.30
2017-08-22T16:45:13.882Z,23.20
2017-08-22T16:47:41.407Z,23.20
2017-08-22T16:50:08.942Z,23.10
2017-08-22T16:52:36.507Z,23.00
2017-08-22T16:55:04.046Z,22.80
2017-08-22T16:57:31.567Z,22.70
2017-08-22T16:59:59.106Z,22.50
2017-08-22T17:02:26.623Z,22.30
2017-08-22T17:04:54.170Z,22.20
2017-08-22T17:07:21.698Z,22.10
2017-08-22T17:09:49.222Z,21.90
2017-08-22T17:12:16.767Z,21.80
2017-08-22T17:14:44.291Z,21.70
2017-08-22T17:17:11.834Z,21.60
2017-08-22T17:19:39.356Z,21.50
2017-08-22T17:22:06.895Z,21.40
2017-08-22T17:24:34.415Z,21.30
2017-08-22T17:27:01.959Z,21.20
2017-08-22T17:29:29.474Z,21.20
2017-08-22T17:31:57.014Z,21.10
2017-08-22T17:34:24.537Z,21.10
2017-08-22T17:36:52.079Z,21.00
2017-08-22T17:39:19.592Z,20.90
2017-08-22T17:41:47.131Z,20.60
2017-08-22T17:44:14.651Z,20.40
2017-08-22T17:46:42.189Z,20.30
2017-08-22T17:49:09.716Z,20.20
2017-08-22T17:51:37.275Z,20.10
2017-08-22T17:54:04.799Z,19.90
2017-08-22T17:56:32.324Z,19.60
2017-08-22T17:58:59.855Z,19.50
2017-08-22T18:01:27.386Z,19.30
2017-08-22T18:03:54.930Z,19.10
2017-08-22T18:06:22.458Z,19.00
2017-08-22T18:08:50.002Z,18.80
2017-08-22T18:11:17.522Z,18.70
2017-08-22T18:13:45.062Z,18.60
2017-08-22T18:16:12.586Z,18.50
2017-08-22T18:18:40.128Z,18.30
2017-08-22T18:21:07.652Z,18.20
2017-08-22T18:23:35.182Z,18.00
2017-08-22T18:26:02.701Z,17.90
2017-08-22T18:28:30.253Z,17.70
2017-08-22T18:30:57.780Z,17.70
2017-08-22T18:33:25.295Z,17.60
2017-08-22T18:35:52.835Z,17.60
2017-08-22T18:38:20.357Z,17.60
2017-08-22T18:40:47.903Z,17.40
2017-08-22T18:43:15.422Z,17.20
2017-08-22T18:45:42.958Z,17.10
2017-08-22T18:48:10.478Z,17.00
2017-08-22T18:50:38.023Z,16.90
2017-08-22T18:53:05.548Z,16.90
2017-08-22T18:55:33.088Z,16.80
2017-08-22T18:58:00.599Z,16.80
2017-08-22T19:00:28.145Z,16.80
2017-08-22T19:02:55.683Z,16.80
2017-08-22T19:05:23.229Z,16.70
2017-08-22T19:07:50.754Z,16.60
2017-08-22T19:10:18.314Z,16.50
2017-08-22T19:12:45.838Z,16.40
2017-08-22T19:15:13.353Z,16.40
2017-08-22T19:17:40.903Z,16.30
2017-08-22T19:20:08.418Z,16.30
2017-08-22T19:22:35.954Z,16.30
2017-08-22T19:25:03.480Z,16.20
2017-08-22T19:27:31.015Z,16.20
2017-08-22T19:29:58.548Z,16.10
2017-08-22T19:32:26.097Z,16.00
2017-08-22T19:34:53.626Z,15.90
2017-08-22T19:37:21.164Z,15.80
2017-08-22T19:39:48.694Z,15.80
2017-08-22T19:42:16.243Z,15.70
2017-08-22T19:44:43.763Z,15.70
2017-08-22T19:47:11.287Z,15.70
2017-08-22T19:49:38.827Z,15.70
2017-08-22T19:52:06.347Z,15.70
2017-08-22T19:54:33.887Z,15.70
2017-08-22T19:57:01.411Z,15.60
2017-08-22T19:59:28.946Z,15.40
2017-08-22T20:01:56.727Z,15.30
2017-08-22T20:04:24.327Z,15.20
2017-08-22T20:06:51.850Z,15.00
2017-08-22T20:09:19.386Z,14.90
2017-08-22T20:11:46.907Z,14.80
2017-08-22T20:14:14.451Z,14.70
2017-08-22T20:16:41.983Z,14.70
2017-08-22T20:19:09.540Z,14.70
2017-08-22T20:21:37.066Z,14.60
2017-08-22T20:24:04.595Z,14.60
2017-08-22T20:26:32.138Z,14.60
2017-08-22T20:28:59.669Z,14.60
2017-08-22T20:31:27.486Z,14.60
2017-08-22T20:33:55.635Z,14.60
2017-08-22T20:36:26.571Z,14.60
2017-08-22T20:38:54.337Z,14.50
2017-08-22T20:41:22.790Z,14.40
2017-08-22T20:43:50.790Z,14.30
2017-08-22T20:46:18.914Z,14.10
2017-08-22T20:48:46.970Z,14.00
2017-08-22T20:51:14.568Z,13.90
2017-08-22T20:53:42.087Z,13.90
2017-08-22T20:56:09.630Z,13.80
2017-08-22T20:58:37.195Z,13.90
2017-08-22T21:01:04.739Z,13.90
2017-08-22T21:03:32.260Z,13.90
2017-08-22T21:05:59.779Z,13.90
2017-08-22T21:08:27.322Z,14.00
2017-08-22T21:10:54.851Z,13.90
2017-08-22T21:13:22.392Z,13.90
2017-08-22T21:15:49.906Z,13.90
2017-08-22T21:18:17.439Z,13.80
2017-08-22T21:20:44.961Z,13.70
2017-08-22T21:23:12.502Z,13.60
2017-08-22T21:25:40.026Z,13.60
2017-08-22T21:28:07.567Z,13.50
2017-08-22T21:30:35.086Z,13.50
2017-08-22T21:33:02.634Z,13.50
2017-08-22T21:35:30.150Z,13.50
2017-08-22T21:37:57.711Z,13.50
2017-08-22T21:40:25.259Z,13.50
2017-08-22T21:42:52.783Z,13.40
2017-08-22T21:45:20.325Z,13.30
2017-08-22T21:47:47.843Z,13.30
2017-08-22T21:50:15.382Z,13.10
2017-08-22T21:52:42.903Z,13.10
2017-08-22T21:55:10.448Z,13.10
2017-08-22T21:57:37.965Z,13.10
2017-08-22T22:00:05.509Z,13.10
2017-08-22T22:02:33.037Z,13.20
2017-08-22T22:05:00.587Z,13.20
2017-08-22T22:07:28.114Z,13.20
2017-08-22T22:09:55.636Z,13.10
2017-08-22T22:12:23.176Z,13.00
2017-08-22T22:14:50.695Z,13.00
2017-08-22T22:17:18.231Z,13.00
2017-08-22T22:19:45.750Z,13.00
2017-08-22T22:22:13.291Z,13.00
2017-08-22T22:24:40.810Z,12.90
2017-08-22T22:27:08.355Z,12.80
2017-08-22T22:29:35.880Z,12.70
2017-08-22T22:32:03.417Z,12.60
2017-08-22T22:34:30.940Z,12.50
2017-08-22T22:36:58.475Z,12.50
2017-08-22T22:39:25.993Z,12.50
2017-08-22T22:41:53.555Z,12.60
2017-08-22T22:44:21.079Z,12.60
2017-08-22T22:46:48.602Z,12.60
2017-08-22T22:49:16.133Z,12.60
2017-08-22T22:51:43.661Z,12.60
2017-08-22T22:54:11.206Z,12.60
2017-08-22T22:56:38.731Z,12.60
2017-08-22T22:59:06.272Z,12.60
2017-08-22T23:01:33.791Z,12.70
2017-08-22T23:04:01.336Z,12.70
2017-08-22T23:06:28.863Z,12.70
2017-08-22T23:08:56.401Z,12.70
2017-08-22T23:11:23.921Z,12.60
2017-08-22T23:13:51.488Z,12.60
2017-08-22T23:16:19.008Z,12.60
2017-08-22T23:18:46.555Z,12.60
2017-08-22T23:21:14.082Z,12.60
2017-08-22T23:23:41.606Z,12.60
2017-08-22T23:26:09.143Z,12.50
2017-08-22T23:28:36.668Z,12.50
2017-08-22T23:31:04.202Z,12.40
2017-08-22T23:33:31.722Z,12.40
2017-08-22T23:35:59.259Z,12.40
2017-08-22T23:38:26.778Z,12.40
2017-08-22T23:40:54.319Z,12.30
2017-08-22T23:43:21.841Z,12.30
2017-08-22T23:45:49.374Z,12.20
2017-08-22T23:48:16.890Z,12.10
2017-08-22T23:50:44.431Z,12.00
2017-08-22T23:53:11.950Z,11.90
2017-08-22T23:55:39.501Z,11.90
2017-08-22T23:58:07.022Z,11.80
